sensor_id;sensor_type;location;lat;lon;timestamp;pressure;altitude;pressure_sealevel;temperature;humidity
64889;BME280;51386;53.082;8.816;2022-10-03T00:02:15;102115.34;;;17.96;56.64
64889;BME280;51386;53.082;8.816;2022-10-03T00:05:07;102119.00;;;17.95;56.52
64889;BME280;51386;53.082;8.816;2022-10-03T00:07:53;102122.06;;;17.92;56.64
64889;BME280;51386;53.082;8.816;2022-10-03T00:10:39;102119.13;;;17.87;56.43
64889;BME280;51386;53.082;8.816;2022-10-03T00:13:23;102127.88;;;17.81;56.64
64889;BME280;51386;53.082;8.816;2022-10-03T00:16:09;102126.97;;;17.74;56.68
64889;BME280;51386;53.082;8.816;2022-10-03T00:18:53;102132.69;;;17.71;56.79
64889;BME280;51386;53.082;8.816;2022-10-03T00:21:44;102137.75;;;17.66;56.85
64889;BME280;51386;53.082;8.816;2022-10-03T00:24:29;102135.44;;;17.63;56.88
64889;BME280;51386;53.082;8.816;2022-10-03T00:27:07;102141.13;;;17.59;56.79
64889;BME280;51386;53.082;8.816;2022-10-03T00:29:54;102141.06;;;17.53;56.83
64889;BME280;51386;53.082;8.816;2022-10-03T00:32:46;102142.59;;;17.47;56.76
64889;BME280;51386;53.082;8.816;2022-10-03T00:35:34;102145.81;;;17.43;56.96
64889;BME280;51386;53.082;8.816;2022-10-03T00:38:32;102150.03;;;17.37;57.11
64889;BME280;51386;53.082;8.816;2022-10-03T00:41:37;102153.91;;;17.35;57.26
64889;BME280;51386;53.082;8.816;2022-10-03T00:44:57;102156.44;;;17.28;57.47
64889;BME280;51386;53.082;8.816;2022-10-03T00:48:07;102152.16;;;17.27;57.50
64889;BME280;51386;53.082;8.816;2022-10-03T00:51:11;102154.16;;;17.25;57.55
64889;BME280;51386;53.082;8.816;2022-10-03T00:54:02;102155.66;;;17.28;57.45
64889;BME280;51386;53.082;8.816;2022-10-03T00:57:00;102157.47;;;17.27;57.49
64889;BME280;51386;53.082;8.816;2022-10-03T01:00:00;102162.78;;;17.27;57.66
64889;BME280;51386;53.082;8.816;2022-10-03T01:02:53;102161.78;;;17.28;57.86
64889;BME280;51386;53.082;8.816;2022-10-03T01:05:40;102166.09;;;17.29;57.52
64889;BME280;51386;53.082;8.816;2022-10-03T01:08:45;102169.13;;;17.26;57.72
64889;BME280;51386;53.082;8.816;2022-10-03T01:11:33;102175.06;;;17.28;57.93
64889;BME280;51386;53.082;8.816;2022-10-03T01:14:20;102170.59;;;17.29;57.75
64889;BME280;51386;53.082;8.816;2022-10-03T01:17:06;102168.22;;;17.34;58.02
64889;BME280;51386;53.082;8.816;2022-10-03T01:20:11;102166.19;;;17.36;57.92
64889;BME280;51386;53.082;8.816;2022-10-03T01:26:02;102173.44;;;17.42;57.83
64889;BME280;51386;53.082;8.816;2022-10-03T01:28:47;102190.88;;;17.44;57.71
64889;BME280;51386;53.082;8.816;2022-10-03T01:31:48;102183.34;;;17.48;57.82
64889;BME280;51386;53.082;8.816;2022-10-03T01:34:27;102180.81;;;17.54;57.69
64889;BME280;51386;53.082;8.816;2022-10-03T01:37:06;102194.38;;;17.59;57.70
64889;BME280;51386;53.082;8.816;2022-10-03T01:39:46;102201.03;;;17.64;57.41
64889;BME280;51386;53.082;8.816;2022-10-03T01:42:34;102204.31;;;17.66;57.62
64889;BME280;51386;53.082;8.816;2022-10-03T01:45:21;102202.28;;;17.68;57.53
64889;BME280;51386;53.082;8.816;2022-10-03T01:47:59;102206.59;;;17.69;57.62
64889;BME280;51386;53.082;8.816;2022-10-03T01:50:35;102215.06;;;17.72;57.46
64889;BME280;51386;53.082;8.816;2022-10-03T01:53:11;102224.03;;;17.71;57.36
64889;BME280;51386;53.082;8.816;2022-10-03T01:55:55;102209.09;;;17.70;56.89
64889;BME280;51386;53.082;8.816;2022-10-03T01:58:38;102212.19;;;17.74;57.62
64889;BME280;51386;53.082;8.816;2022-10-03T02:01:14;102202.84;;;17.78;57.35
64889;BME280;51386;53.082;8.816;2022-10-03T02:03:52;102214.78;;;17.82;57.40
64889;BME280;51386;53.082;8.816;2022-10-03T02:06:31;102222.19;;;17.86;57.34
64889;BME280;51386;53.082;8.816;2022-10-03T02:09:08;102234.97;;;17.91;57.36
64889;BME280;51386;53.082;8.816;2022-10-03T02:11:56;102239.28;;;17.92;57.31
64889;BME280;51386;53.082;8.816;2022-10-03T02:14:34;102240.75;;;17.94;57.18
64889;BME280;51386;53.082;8.816;2022-10-03T02:17:18;102232.94;;;17.93;57.19
64889;BME280;51386;53.082;8.816;2022-10-03T02:19:59;102222.69;;;17.90;57.29
64889;BME280;51386;53.082;8.816;2022-10-03T02:22:33;102223.03;;;17.87;57.17
64889;BME280;51386;53.082;8.816;2022-10-03T02:25:20;102226.44;;;17.81;57.20
64889;BME280;51386;53.082;8.816;2022-10-03T02:32:17;102232.59;;;17.67;57.73
64889;BME280;51386;53.082;8.816;2022-10-03T02:41:28;102230.03;;;17.58;58.01
64889;BME280;51386;53.082;8.816;2022-10-03T02:44:50;102229.56;;;17.55;58.22
64889;BME280;51386;53.082;8.816;2022-10-03T02:51:42;102249.47;;;17.44;58.12
64889;BME280;51386;53.082;8.816;2022-10-03T02:58:54;102258.78;;;17.40;58.28
64889;BME280;51386;53.082;8.816;2022-10-03T03:05:21;102254.78;;;17.44;58.15
64889;BME280;51386;53.082;8.816;2022-10-03T03:08:35;102264.25;;;17.47;58.19
64889;BME280;51386;53.082;8.816;2022-10-03T03:15:05;102264.50;;;17.37;57.72
64889;BME280;51386;53.082;8.816;2022-10-03T03:17:50;102263.69;;;17.37;57.71
64889;BME280;51386;53.082;8.816;2022-10-03T03:20:46;102263.19;;;17.33;57.86
64889;BME280;51386;53.082;8.816;2022-10-03T03:23:52;102251.63;;;17.26;57.80
64889;BME280;51386;53.082;8.816;2022-10-03T03:27:03;102250.03;;;17.17;58.11
64889;BME280;51386;53.082;8.816;2022-10-03T03:29:42;102254.72;;;17.15;57.79
64889;BME280;51386;53.082;8.816;2022-10-03T03:32:25;102249.31;;;17.09;58.11
64889;BME280;51386;53.082;8.816;2022-10-03T03:35:06;102256.16;;;17.03;58.13
64889;BME280;51386;53.082;8.816;2022-10-03T03:37:53;102246.25;;;16.97;58.05
64889;BME280;51386;53.082;8.816;2022-10-03T03:40:37;102242.47;;;16.91;58.23
64889;BME280;51386;53.082;8.816;2022-10-03T03:43:43;102243.69;;;16.81;58.32
64889;BME280;51386;53.082;8.816;2022-10-03T03:46:31;102264.31;;;16.79;58.56
64889;BME280;51386;53.082;8.816;2022-10-03T03:49:21;102267.53;;;16.74;58.49
64889;BME280;51386;53.082;8.816;2022-10-03T03:52:15;102266.03;;;16.72;58.43
64889;BME280;51386;53.082;8.816;2022-10-03T03:55:21;102267.75;;;16.65;58.50
64889;BME280;51386;53.082;8.816;2022-10-03T03:58:09;102265.75;;;16.67;58.74
64889;BME280;51386;53.082;8.816;2022-10-03T04:01:16;102263.63;;;16.62;58.81
64889;BME280;51386;53.082;8.816;2022-10-03T04:04:07;102274.44;;;16.61;58.94
64889;BME280;51386;53.082;8.816;2022-10-03T04:06:51;102277.09;;;16.61;58.63
64889;BME280;51386;53.082;8.816;2022-10-03T04:09:53;102282.41;;;16.61;58.84
64889;BME280;51386;53.082;8.816;2022-10-03T04:12:49;102277.56;;;16.64;58.83
64889;BME280;51386;53.082;8.816;2022-10-03T04:15:38;102279.69;;;16.69;59.17
64889;BME280;51386;53.082;8.816;2022-10-03T04:18:41;102286.31;;;16.73;58.91
64889;BME280;51386;53.082;8.816;2022-10-03T04:21:58;102288.09;;;16.80;59.09
64889;BME280;51386;53.082;8.816;2022-10-03T04:24:58;102284.53;;;16.88;59.14
64889;BME280;51386;53.082;8.816;2022-10-03T04:28:05;102288.69;;;16.90;58.72
64889;BME280;51386;53.082;8.816;2022-10-03T04:30:56;102290.81;;;16.95;58.89
64889;BME280;51386;53.082;8.816;2022-10-03T04:33:45;102297.59;;;16.98;58.65
64889;BME280;51386;53.082;8.816;2022-10-03T04:36:55;102297.78;;;16.96;58.64
64889;BME280;51386;53.082;8.816;2022-10-03T04:39:34;102294.94;;;16.98;58.50
64889;BME280;51386;53.082;8.816;2022-10-03T04:42:15;102294.94;;;16.98;58.64
64889;BME280;51386;53.082;8.816;2022-10-03T04:45:25;102305.47;;;16.91;58.69
64889;BME280;51386;53.082;8.816;2022-10-03T04:48:09;102303.00;;;16.89;58.91
64889;BME280;51386;53.082;8.816;2022-10-03T04:50:54;102308.47;;;16.88;58.73
64889;BME280;51386;53.082;8.816;2022-10-03T04:53:46;102314.81;;;16.87;58.70
64889;BME280;51386;53.082;8.816;2022-10-03T04:56:49;102313.16;;;16.86;58.83
64889;BME280;51386;53.082;8.816;2022-10-03T04:59:35;102307.47;;;16.89;58.97
64889;BME280;51386;53.082;8.816;2022-10-03T05:02:17;102316.09;;;16.91;58.87
64889;BME280;51386;53.082;8.816;2022-10-03T05:05:14;102310.34;;;16.87;58.53
64889;BME280;51386;53.082;8.816;2022-10-03T05:07:53;102313.16;;;16.86;58.77
64889;BME280;51386;53.082;8.816;2022-10-03T05:10:51;102309.53;;;16.79;58.67
64889;BME280;51386;53.082;8.816;2022-10-03T05:13:43;102314.56;;;16.74;58.90
64889;BME280;51386;53.082;8.816;2022-10-03T05:16:24;102321.88;;;16.72;58.88
64889;BME280;51386;53.082;8.816;2022-10-03T05:19:28;102319.75;;;16.67;59.09
64889;BME280;51386;53.082;8.816;2022-10-03T05:22:03;102327.53;;;16.69;58.97
64889;BME280;51386;53.082;8.816;2022-10-03T05:24:48;102329.75;;;16.65;59.36
64889;BME280;51386;53.082;8.816;2022-10-03T05:27:26;102331.56;;;16.65;59.52
64889;BME280;51386;53.082;8.816;2022-10-03T05:30:03;102328.91;;;16.65;59.34
64889;BME280;51386;53.082;8.816;2022-10-03T05:32:40;102323.94;;;16.62;59.17
64889;BME280;51386;53.082;8.816;2022-10-03T05:35:40;102327.75;;;16.59;59.25
64889;BME280;51386;53.082;8.816;2022-10-03T05:41:30;102337.59;;;16.59;59.53
64889;BME280;51386;53.082;8.816;2022-10-03T05:44:04;102343.72;;;16.59;59.65
64889;BME280;51386;53.082;8.816;2022-10-03T05:46:55;102344.56;;;16.60;59.59
64889;BME280;51386;53.082;8.816;2022-10-03T05:49:51;102349.22;;;16.58;59.64
64889;BME280;51386;53.082;8.816;2022-10-03T05:52:51;102347.22;;;16.60;59.71
64889;BME280;51386;53.082;8.816;2022-10-03T05:55:36;102343.56;;;16.61;59.59
64889;BME280;51386;53.082;8.816;2022-10-03T05:58:37;102349.22;;;16.58;59.46
64889;BME280;51386;53.082;8.816;2022-10-03T06:01:49;102347.28;;;16.52;59.66
64889;BME280;51386;53.082;8.816;2022-10-03T06:05:10;102350.88;;;16.51;59.94
64889;BME280;51386;53.082;8.816;2022-10-03T06:11:01;102349.75;;;16.53;59.88
64889;BME280;51386;53.082;8.816;2022-10-03T06:13:57;102351.88;;;16.58;60.06
64889;BME280;51386;53.082;8.816;2022-10-03T06:16:39;102350.69;;;16.60;59.87
64889;BME280;51386;53.082;8.816;2022-10-03T06:19:33;102358.50;;;16.62;59.74
64889;BME280;51386;53.082;8.816;2022-10-03T06:22:58;102349.53;;;16.63;60.03
64889;BME280;51386;53.082;8.816;2022-10-03T06:26:30;102352.19;;;16.63;60.08
64889;BME280;51386;53.082;8.816;2022-10-03T06:29:51;102365.16;;;16.66;60.04
64889;BME280;51386;53.082;8.816;2022-10-03T06:33:30;102356.97;;;16.67;59.93
64889;BME280;51386;53.082;8.816;2022-10-03T06:40:24;102365.72;;;16.76;59.94
64889;BME280;51386;53.082;8.816;2022-10-03T06:43:35;102377.94;;;16.93;60.17
64889;BME280;51386;53.082;8.816;2022-10-03T06:46:59;102370.88;;;17.08;59.55
64889;BME280;51386;53.082;8.816;2022-10-03T06:50:03;102375.22;;;17.24;59.55
64889;BME280;51386;53.082;8.816;2022-10-03T06:53:16;102376.31;;;17.37;59.21
64889;BME280;51386;53.082;8.816;2022-10-03T06:56:17;102370.25;;;17.43;59.16
64889;BME280;51386;53.082;8.816;2022-10-03T06:59:25;102377.34;;;17.51;59.05
64889;BME280;51386;53.082;8.816;2022-10-03T07:12:44;102369.06;;;17.69;58.72
64889;BME280;51386;53.082;8.816;2022-10-03T07:16:00;102375.59;;;17.81;58.79
64889;BME280;51386;53.082;8.816;2022-10-03T07:19:39;102383.81;;;17.94;58.65
64889;BME280;51386;53.082;8.816;2022-10-03T07:22:46;102396.31;;;18.08;58.43
64889;BME280;51386;53.082;8.816;2022-10-03T07:29:08;102396.22;;;18.31;57.95
64889;BME280;51386;53.082;8.816;2022-10-03T07:32:03;102398.88;;;18.45;57.82
64889;BME280;51386;53.082;8.816;2022-10-03T07:35:27;102401.00;;;18.64;57.52
64889;BME280;51386;53.082;8.816;2022-10-03T07:38:57;102409.69;;;18.87;57.15
64889;BME280;51386;53.082;8.816;2022-10-03T07:45:36;102414.34;;;19.36;56.17
64889;BME280;51386;53.082;8.816;2022-10-03T07:48:52;102415.38;;;19.56;55.70
64889;BME280;51386;53.082;8.816;2022-10-03T07:51:35;102423.75;;;19.74;55.02
64889;BME280;51386;53.082;8.816;2022-10-03T07:54:45;102410.72;;;19.92;55.11
64889;BME280;51386;53.082;8.816;2022-10-03T07:57:53;102412.31;;;20.14;54.38
64889;BME280;51386;53.082;8.816;2022-10-03T08:00:39;102420.06;;;20.31;54.01
64889;BME280;51386;53.082;8.816;2022-10-03T08:03:52;102425.66;;;20.36;53.93
64889;BME280;51386;53.082;8.816;2022-10-03T08:06:34;102420.78;;;20.46;53.33
64889;BME280;51386;53.082;8.816;2022-10-03T08:12:54;102424.31;;;20.53;52.83
64889;BME280;51386;53.082;8.816;2022-10-03T08:15:40;102425.53;;;20.57;52.65
64889;BME280;51386;53.082;8.816;2022-10-03T08:19:00;102426.34;;;20.51;52.52
64889;BME280;51386;53.082;8.816;2022-10-03T08:21:57;102432.94;;;20.55;52.98
64889;BME280;51386;53.082;8.816;2022-10-03T08:24:58;102439.56;;;20.59;53.08
64889;BME280;51386;53.082;8.816;2022-10-03T08:28:03;102442.50;;;20.70;52.26
64889;BME280;51386;53.082;8.816;2022-10-03T08:31:07;102446.31;;;21.02;52.51
64889;BME280;51386;53.082;8.816;2022-10-03T08:33:57;102444.44;;;21.70;51.86
64889;BME280;51386;53.082;8.816;2022-10-03T08:37:25;102443.53;;;22.48;50.00
64889;BME280;51386;53.082;8.816;2022-10-03T08:40:53;102440.94;;;22.85;48.74
64889;BME280;51386;53.082;8.816;2022-10-03T08:50:45;102450.66;;;22.80;47.42
64889;BME280;51386;53.082;8.816;2022-10-03T08:53:58;102450.69;;;22.73;47.31
64889;BME280;51386;53.082;8.816;2022-10-03T08:56:55;102449.75;;;22.99;46.75
64889;BME280;51386;53.082;8.816;2022-10-03T09:00:03;102453.41;;;23.49;45.46
64889;BME280;51386;53.082;8.816;2022-10-03T09:06:50;102459.50;;;24.91;43.92
64889;BME280;51386;53.082;8.816;2022-10-03T09:10:34;102457.56;;;26.50;40.69
64889;BME280;51386;53.082;8.816;2022-10-03T09:13:50;102453.47;;;27.94;38.95
64889;BME280;51386;53.082;8.816;2022-10-03T09:27:32;102455.59;;;32.81;29.15
64889;BME280;51386;53.082;8.816;2022-10-03T09:30:24;102462.94;;;33.29;29.29
64889;BME280;51386;53.082;8.816;2022-10-03T09:36:52;102458.09;;;34.36;26.74
64889;BME280;51386;53.082;8.816;2022-10-03T09:40:13;102457.47;;;34.86;26.19
64889;BME280;51386;53.082;8.816;2022-10-03T09:43:25;102452.22;;;35.27;25.51
64889;BME280;51386;53.082;8.816;2022-10-03T09:50:12;102457.38;;;35.28;25.36
64889;BME280;51386;53.082;8.816;2022-10-03T09:53:20;102444.94;;;34.14;25.22
64889;BME280;51386;53.082;8.816;2022-10-03T09:56:31;102442.31;;;33.80;26.05
64889;BME280;51386;53.082;8.816;2022-10-03T09:59:24;102446.34;;;34.12;25.89
64889;BME280;51386;53.082;8.816;2022-10-03T10:02:13;102448.84;;;34.32;25.90
64889;BME280;51386;53.082;8.816;2022-10-03T10:05:11;102446.50;;;34.67;25.10
64889;BME280;51386;53.082;8.816;2022-10-03T10:08:07;102452.75;;;34.26;25.01
64889;BME280;51386;53.082;8.816;2022-10-03T10:10:56;102450.16;;;33.19;26.01
64889;BME280;51386;53.082;8.816;2022-10-03T10:14:08;102453.13;;;32.00;26.96
64889;BME280;51386;53.082;8.816;2022-10-03T10:20:10;102452.84;;;31.76;27.53
64889;BME280;51386;53.082;8.816;2022-10-03T10:23:14;102448.44;;;31.10;27.63
64889;BME280;51386;53.082;8.816;2022-10-03T10:26:50;102448.47;;;30.38;28.77
64889;BME280;51386;53.082;8.816;2022-10-03T10:30:08;102441.56;;;29.78;30.09
64889;BME280;51386;53.082;8.816;2022-10-03T10:33:41;102448.31;;;29.17;30.77
64889;BME280;51386;53.082;8.816;2022-10-03T10:37:21;102437.06;;;28.39;31.50
64889;BME280;51386;53.082;8.816;2022-10-03T10:40:29;102441.13;;;27.81;32.12
64889;BME280;51386;53.082;8.816;2022-10-03T10:46:51;102437.94;;;26.95;33.90
64889;BME280;51386;53.082;8.816;2022-10-03T10:57:02;102442.78;;;26.18;35.45
64889;BME280;51386;53.082;8.816;2022-10-03T11:03:53;102435.38;;;26.02;36.11
64889;BME280;51386;53.082;8.816;2022-10-03T11:07:15;102441.63;;;26.14;36.34
64889;BME280;51386;53.082;8.816;2022-10-03T11:10:27;102433.41;;;25.97;36.12
64889;BME280;51386;53.082;8.816;2022-10-03T11:17:13;102431.78;;;25.43;37.02
64889;BME280;51386;53.082;8.816;2022-10-03T11:20:33;102429.34;;;25.12;37.33
64889;BME280;51386;53.082;8.816;2022-10-03T11:24:12;102423.84;;;24.89;37.85
64889;BME280;51386;53.082;8.816;2022-10-03T11:27:27;102428.63;;;25.05;38.59
64889;BME280;51386;53.082;8.816;2022-10-03T11:30:20;102420.34;;;25.60;37.83
64889;BME280;51386;53.082;8.816;2022-10-03T11:33:42;102424.22;;;25.75;37.65
64889;BME280;51386;53.082;8.816;2022-10-03T11:37:05;102428.34;;;25.78;37.46
64889;BME280;51386;53.082;8.816;2022-10-03T11:39:48;102427.50;;;25.89;37.20
64889;BME280;51386;53.082;8.816;2022-10-03T11:42:46;102427.75;;;25.99;36.72
64889;BME280;51386;53.082;8.816;2022-10-03T11:45:28;102421.78;;;25.97;36.54
64889;BME280;51386;53.082;8.816;2022-10-03T11:48:33;102422.47;;;25.81;36.47
64889;BME280;51386;53.082;8.816;2022-10-03T11:51:09;102415.22;;;25.70;37.05
64889;BME280;51386;53.082;8.816;2022-10-03T11:53:46;102425.03;;;25.52;36.65
64889;BME280;51386;53.082;8.816;2022-10-03T11:56:42;102421.91;;;25.37;37.61
64889;BME280;51386;53.082;8.816;2022-10-03T11:59:31;102423.88;;;25.19;37.74
64889;BME280;51386;53.082;8.816;2022-10-03T12:02:21;102427.84;;;25.16;37.26
64889;BME280;51386;53.082;8.816;2022-10-03T12:05:01;102419.19;;;25.26;37.41
64889;BME280;51386;53.082;8.816;2022-10-03T12:07:59;102416.47;;;25.14;37.32
64889;BME280;51386;53.082;8.816;2022-10-03T12:11:05;102425.94;;;25.05;37.67
64889;BME280;51386;53.082;8.816;2022-10-03T12:13:47;102417.13;;;24.98;37.42
64889;BME280;51386;53.082;8.816;2022-10-03T12:16:23;102413.00;;;24.96;38.36
64889;BME280;51386;53.082;8.816;2022-10-03T12:19:03;102423.41;;;24.92;38.32
64889;BME280;51386;53.082;8.816;2022-10-03T12:21:44;102416.28;;;24.98;38.44
64889;BME280;51386;53.082;8.816;2022-10-03T12:24:27;102423.78;;;24.96;38.55
64889;BME280;51386;53.082;8.816;2022-10-03T12:27:13;102415.19;;;24.87;38.68
64889;BME280;51386;53.082;8.816;2022-10-03T12:29:53;102429.19;;;24.77;38.66
64889;BME280;51386;53.082;8.816;2022-10-03T12:32:36;102433.66;;;24.65;38.78
64889;BME280;51386;53.082;8.816;2022-10-03T12:35:32;102430.16;;;24.47;38.56
64889;BME280;51386;53.082;8.816;2022-10-03T12:38:24;102420.00;;;24.31;39.11
64889;BME280;51386;53.082;8.816;2022-10-03T12:41:08;102422.63;;;24.19;39.12
64889;BME280;51386;53.082;8.816;2022-10-03T12:44:04;102427.69;;;24.09;39.88
64889;BME280;51386;53.082;8.816;2022-10-03T12:46:45;102428.31;;;24.04;40.15
64889;BME280;51386;53.082;8.816;2022-10-03T12:49:23;102432.72;;;23.99;40.04
64889;BME280;51386;53.082;8.816;2022-10-03T12:52:02;102425.75;;;23.91;40.12
64889;BME280;51386;53.082;8.816;2022-10-03T12:55:00;102429.59;;;23.77;40.44
64889;BME280;51386;53.082;8.816;2022-10-03T12:57:52;102423.91;;;23.67;40.84
64889;BME280;51386;53.082;8.816;2022-10-03T13:00:26;102432.19;;;23.66;41.47
64889;BME280;51386;53.082;8.816;2022-10-03T13:03:31;102425.66;;;23.55;41.68
64889;BME280;51386;53.082;8.816;2022-10-03T13:06:43;102429.81;;;23.51;42.04
64889;BME280;51386;53.082;8.816;2022-10-03T13:10:05;102425.72;;;23.48;41.67
64889;BME280;51386;53.082;8.816;2022-10-03T13:12:45;102422.38;;;23.53;42.03
64889;BME280;51386;53.082;8.816;2022-10-03T13:15:58;102419.94;;;23.45;41.76
64889;BME280;51386;53.082;8.816;2022-10-03T13:18:46;102423.22;;;23.47;42.05
64889;BME280;51386;53.082;8.816;2022-10-03T13:21:25;102420.72;;;23.52;42.29
64889;BME280;51386;53.082;8.816;2022-10-03T13:24:29;102420.66;;;23.58;41.99
64889;BME280;51386;53.082;8.816;2022-10-03T13:27:24;102420.13;;;23.75;41.87
64889;BME280;51386;53.082;8.816;2022-10-03T13:30:04;102415.91;;;24.03;41.97
64889;BME280;51386;53.082;8.816;2022-10-03T13:32:37;102414.59;;;24.49;41.16
64889;BME280;51386;53.082;8.816;2022-10-03T13:35:21;102417.28;;;24.85;40.32
64889;BME280;51386;53.082;8.816;2022-10-03T13:38:56;102411.72;;;24.98;39.32
64889;BME280;51386;53.082;8.816;2022-10-03T13:41:33;102410.34;;;25.07;39.30
64889;BME280;51386;53.082;8.816;2022-10-03T13:44:14;102418.31;;;25.02;38.59
64889;BME280;51386;53.082;8.816;2022-10-03T13:46:49;102410.53;;;24.94;38.29
64889;BME280;51386;53.082;8.816;2022-10-03T13:49:28;102406.94;;;24.82;38.30
64889;BME280;51386;53.082;8.816;2022-10-03T13:52:13;102413.53;;;24.68;38.74
64889;BME280;51386;53.082;8.816;2022-10-03T13:55:19;102419.38;;;24.47;39.56
64889;BME280;51386;53.082;8.816;2022-10-03T14:01:31;102411.00;;;24.37;39.53
64889;BME280;51386;53.082;8.816;2022-10-03T14:04:49;102412.59;;;24.26;39.83
64889;BME280;51386;53.082;8.816;2022-10-03T14:07:37;102409.66;;;24.28;40.27
64889;BME280;51386;53.082;8.816;2022-10-03T14:10:22;102407.22;;;24.26;40.06
64889;BME280;51386;53.082;8.816;2022-10-03T14:13:19;102405.19;;;24.21;40.61
64889;BME280;51386;53.082;8.816;2022-10-03T14:15:57;102402.06;;;24.25;40.16
64889;BME280;51386;53.082;8.816;2022-10-03T14:18:43;102399.38;;;24.25;40.39
64889;BME280;51386;53.082;8.816;2022-10-03T14:21:44;102401.84;;;24.26;40.91
64889;BME280;51386;53.082;8.816;2022-10-03T14:24:30;102396.81;;;24.30;40.60
64889;BME280;51386;53.082;8.816;2022-10-03T14:27:36;102390.66;;;24.22;40.47
64889;BME280;51386;53.082;8.816;2022-10-03T14:30:11;102395.63;;;24.26;40.86
64889;BME280;51386;53.082;8.816;2022-10-03T14:32:58;102398.75;;;24.22;41.10
64889;BME280;51386;53.082;8.816;2022-10-03T14:35:51;102408.16;;;24.13;40.96
64889;BME280;51386;53.082;8.816;2022-10-03T14:38:45;102389.63;;;24.05;41.18
64889;BME280;51386;53.082;8.816;2022-10-03T14:41:45;102391.31;;;24.00;41.08
64889;BME280;51386;53.082;8.816;2022-10-03T14:44:19;102401.69;;;23.96;40.65
64889;BME280;51386;53.082;8.816;2022-10-03T14:46:56;102396.38;;;23.90;40.86
64889;BME280;51386;53.082;8.816;2022-10-03T14:49:28;102394.34;;;23.85;41.38
64889;BME280;51386;53.082;8.816;2022-10-03T14:52:29;102381.41;;;23.76;41.35
64889;BME280;51386;53.082;8.816;2022-10-03T14:55:10;102385.78;;;23.70;41.49
64889;BME280;51386;53.082;8.816;2022-10-03T14:57:45;102386.25;;;23.67;41.87
64889;BME280;51386;53.082;8.816;2022-10-03T15:00:39;102383.41;;;23.62;41.71
64889;BME280;51386;53.082;8.816;2022-10-03T15:03:28;102382.63;;;23.55;41.85
64889;BME280;51386;53.082;8.816;2022-10-03T15:06:01;102384.72;;;23.53;42.04
64889;BME280;51386;53.082;8.816;2022-10-03T15:08:36;102389.34;;;23.46;42.21
64889;BME280;51386;53.082;8.816;2022-10-03T15:11:08;102395.13;;;23.43;42.27
64889;BME280;51386;53.082;8.816;2022-10-03T15:13:43;102385.66;;;23.40;42.46
64889;BME280;51386;53.082;8.816;2022-10-03T15:16:16;102390.63;;;23.37;42.39
64889;BME280;51386;53.082;8.816;2022-10-03T15:18:55;102384.00;;;23.33;42.75
64889;BME280;51386;53.082;8.816;2022-10-03T15:21:25;102386.94;;;23.31;42.92
64889;BME280;51386;53.082;8.816;2022-10-03T15:23:58;102375.78;;;23.28;42.97
64889;BME280;51386;53.082;8.816;2022-10-03T15:26:34;102374.56;;;23.24;43.01
64889;BME280;51386;53.082;8.816;2022-10-03T15:29:05;102377.69;;;23.21;43.18
64889;BME280;51386;53.082;8.816;2022-10-03T15:31:36;102371.72;;;23.19;43.35
64889;BME280;51386;53.082;8.816;2022-10-03T15:34:15;102370.94;;;23.12;43.18
64889;BME280;51386;53.082;8.816;2022-10-03T15:36:48;102369.72;;;23.08;43.70
64889;BME280;51386;53.082;8.816;2022-10-03T15:39:23;102365.22;;;23.02;43.64
64889;BME280;51386;53.082;8.816;2022-10-03T15:42:00;102371.47;;;22.96;43.98
64889;BME280;51386;53.082;8.816;2022-10-03T15:44:33;102367.56;;;22.92;44.00
64889;BME280;51386;53.082;8.816;2022-10-03T15:47:11;102371.94;;;22.86;44.12
64889;BME280;51386;53.082;8.816;2022-10-03T15:49:47;102376.91;;;22.82;44.38
64889;BME280;51386;53.082;8.816;2022-10-03T15:52:22;102370.31;;;22.78;44.66
64889;BME280;51386;53.082;8.816;2022-10-03T15:54:55;102365.38;;;22.75;44.63
64889;BME280;51386;53.082;8.816;2022-10-03T15:57:43;102362.50;;;22.70;44.57
64889;BME280;51386;53.082;8.816;2022-10-03T16:00:21;102360.47;;;22.66;45.09
64889;BME280;51386;53.082;8.816;2022-10-03T16:02:59;102363.78;;;22.61;44.87
64889;BME280;51386;53.082;8.816;2022-10-03T16:05:28;102353.06;;;22.61;45.20
64889;BME280;51386;53.082;8.816;2022-10-03T16:08:03;102364.19;;;22.58;45.19
64889;BME280;51386;53.082;8.816;2022-10-03T16:10:37;102358.00;;;22.58;45.25
64889;BME280;51386;53.082;8.816;2022-10-03T16:13:24;102356.75;;;22.54;45.29
64889;BME280;51386;53.082;8.816;2022-10-03T16:16:29;102355.19;;;22.46;45.23
64889;BME280;51386;53.082;8.816;2022-10-03T16:19:26;102360.97;;;22.43;45.35
64889;BME280;51386;53.082;8.816;2022-10-03T16:22:09;102354.97;;;22.41;45.41
64889;BME280;51386;53.082;8.816;2022-10-03T16:24:56;102363.03;;;22.41;45.45
64889;BME280;51386;53.082;8.816;2022-10-03T16:27:27;102363.03;;;22.41;45.70
64889;BME280;51386;53.082;8.816;2022-10-03T16:30:15;102364.28;;;22.39;45.87
64889;BME280;51386;53.082;8.816;2022-10-03T16:32:54;102359.94;;;22.38;46.01
64889;BME280;51386;53.082;8.816;2022-10-03T16:35:40;102365.13;;;22.33;45.95
64889;BME280;51386;53.082;8.816;2022-10-03T16:38:20;102360.59;;;22.27;45.99
64889;BME280;51386;53.082;8.816;2022-10-03T16:40:54;102370.94;;;22.23;46.18
64889;BME280;51386;53.082;8.816;2022-10-03T16:43:24;102371.38;;;22.20;46.39
64889;BME280;51386;53.082;8.816;2022-10-03T16:45:54;102372.81;;;22.16;46.01
64889;BME280;51386;53.082;8.816;2022-10-03T16:48:27;102359.84;;;22.13;46.47
64889;BME280;51386;53.082;8.816;2022-10-03T16:51:18;102358.81;;;22.07;46.54
64889;BME280;51386;53.082;8.816;2022-10-03T16:53:49;102357.16;;;22.06;46.79
64889;BME280;51386;53.082;8.816;2022-10-03T16:56:23;102363.75;;;22.04;46.61
64889;BME280;51386;53.082;8.816;2022-10-03T16:58:54;102355.94;;;22.02;47.16